sensor_id;sensor_type;location;lat;lon;timestamp;P1;durP1;ratioP1;P2;durP2;ratioP2
52033;SDS011;38045;52.988;6.536;2024-02-14T00:01:52;8.20;;;6.90;;
52033;SDS011;38045;52.988;6.536;2024-02-14T00:04:17;6.30;;;4.60;;
52033;SDS011;38045;52.988;6.536;2024-02-14T00:06:43;7.53;;;6.43;;
52033;SDS011;38045;52.988;6.536;2024-02-14T00:09:10;6.60;;;5.70;;
52033;SDS011;38045;52.988;6.536;2024-02-14T00:11:36;9.40;;;7.63;;
52033;SDS011;38045;52.988;6.536;2024-02-14T00:14:02;7.82;;;7.07;;
52033;SDS011;38045;52.988;6.536;2024-02-14T00:16:27;7.30;;;6.60;;
52033;SDS011;38045;52.988;6.536;2024-02-14T00:18:56;9.93;;;8.93;;
52033;SDS011;38045;52.988;6.536;2024-02-14T00:21:22;12.25;;;10.80;;
52033;SDS011;38045;52.988;6.536;2024-02-14T00:23:49;9.90;;;8.90;;
52033;SDS011;38045;52.988;6.536;2024-02-14T00:26:15;9.20;;;8.32;;
52033;SDS011;38045;52.988;6.536;2024-02-14T00:28:40;11.88;;;8.55;;
52033;SDS011;38045;52.988;6.536;2024-02-14T00:31:06;11.27;;;9.20;;
52033;SDS011;38045;52.988;6.536;2024-02-14T00:33:31;10.88;;;9.63;;
52033;SDS011;38045;52.988;6.536;2024-02-14T00:35:57;7.70;;;6.18;;
52033;SDS011;38045;52.988;6.536;2024-02-14T00:38:22;9.20;;;8.02;;
52033;SDS011;38045;52.988;6.536;2024-02-14T00:40:48;9.65;;;8.63;;
52033;SDS011;38045;52.988;6.536;2024-02-14T00:43:14;8.98;;;6.88;;
52033;SDS011;38045;52.988;6.536;2024-02-14T00:45:39;9.52;;;8.52;;
52033;SDS011;38045;52.988;6.536;2024-02-14T00:48:05;12.93;;;9.43;;
52033;SDS011;38045;52.988;6.536;2024-02-14T00:50:32;9.00;;;8.13;;
52033;SDS011;38045;52.988;6.536;2024-02-14T00:52:58;8.60;;;7.82;;
52033;SDS011;38045;52.988;6.536;2024-02-14T00:55:24;8.98;;;8.23;;
52033;SDS011;38045;52.988;6.536;2024-02-14T00:57:50;10.18;;;9.18;;
52033;SDS011;38045;52.988;6.536;2024-02-14T01:00:15;11.18;;;6.50;;
52033;SDS011;38045;52.988;6.536;2024-02-14T01:02:42;10.05;;;7.50;;
52033;SDS011;38045;52.988;6.536;2024-02-14T01:05:08;9.18;;;8.38;;
52033;SDS011;38045;52.988;6.536;2024-02-14T01:07:34;6.35;;;4.85;;
52033;SDS011;38045;52.988;6.536;2024-02-14T01:10:00;7.70;;;6.82;;
52033;SDS011;38045;52.988;6.536;2024-02-14T01:12:26;6.18;;;5.63;;
52033;SDS011;38045;52.988;6.536;2024-02-14T01:14:51;9.60;;;7.70;;
52033;SDS011;38045;52.988;6.536;2024-02-14T01:17:17;7.63;;;6.90;;
52033;SDS011;38045;52.988;6.536;2024-02-14T01:19:42;6.55;;;6.03;;
52033;SDS011;38045;52.988;6.536;2024-02-14T01:22:08;8.40;;;7.70;;
52033;SDS011;38045;52.988;6.536;2024-02-14T01:24:34;5.72;;;5.05;;
52033;SDS011;38045;52.988;6.536;2024-02-14T01:27:00;8.27;;;7.53;;
52033;SDS011;38045;52.988;6.536;2024-02-14T01:29:25;8.95;;;8.13;;
52033;SDS011;38045;52.988;6.536;2024-02-14T01:31:52;5.40;;;5.00;;
52033;SDS011;38045;52.988;6.536;2024-02-14T01:34:17;6.28;;;5.78;;
52033;SDS011;38045;52.988;6.536;2024-02-14T01:36:43;6.68;;;5.65;;
52033;SDS011;38045;52.988;6.536;2024-02-14T01:39:09;6.70;;;6.10;;
52033;SDS011;38045;52.988;6.536;2024-02-14T01:41:36;7.20;;;6.40;;
52033;SDS011;38045;52.988;6.536;2024-02-14T01:44:03;7.82;;;7.25;;
52033;SDS011;38045;52.988;6.536;2024-02-14T01:46:29;6.65;;;6.05;;
52033;SDS011;38045;52.988;6.536;2024-02-14T01:48:55;6.03;;;5.53;;
52033;SDS011;38045;52.988;6.536;2024-02-14T01:51:21;5.65;;;5.20;;
52033;SDS011;38045;52.988;6.536;2024-02-14T01:53:49;6.20;;;5.70;;
52033;SDS011;38045;52.988;6.536;2024-02-14T01:56:16;7.07;;;6.47;;
52033;SDS011;38045;52.988;6.536;2024-02-14T01:58:42;6.35;;;5.82;;
52033;SDS011;38045;52.988;6.536;2024-02-14T02:01:08;6.20;;;5.65;;
52033;SDS011;38045;52.988;6.536;2024-02-14T02:03:35;8.70;;;7.90;;
52033;SDS011;38045;52.988;6.536;2024-02-14T02:06:02;5.95;;;5.45;;
52033;SDS011;38045;52.988;6.536;2024-02-14T02:08:30;6.43;;;5.07;;
52033;SDS011;38045;52.988;6.536;2024-02-14T02:10:57;4.72;;;4.25;;
52033;SDS011;38045;52.988;6.536;2024-02-14T02:13:23;3.53;;;3.28;;
52033;SDS011;38045;52.988;6.536;2024-02-14T02:15:48;5.68;;;5.22;;
52033;SDS011;38045;52.988;6.536;2024-02-14T02:18:14;5.35;;;4.75;;
52033;SDS011;38045;52.988;6.536;2024-02-14T02:20:40;4.90;;;4.15;;
52033;SDS011;38045;52.988;6.536;2024-02-14T02:23:09;6.00;;;5.47;;
52033;SDS011;38045;52.988;6.536;2024-02-14T02:25:35;6.00;;;5.40;;
52033;SDS011;38045;52.988;6.536;2024-02-14T02:28:01;4.82;;;4.43;;
52033;SDS011;38045;52.988;6.536;2024-02-14T02:30:26;5.30;;;4.85;;
52033;SDS011;38045;52.988;6.536;2024-02-14T02:32:52;3.17;;;2.90;;
52033;SDS011;38045;52.988;6.536;2024-02-14T02:35:18;4.70;;;4.38;;
52033;SDS011;38045;52.988;6.536;2024-02-14T02:37:46;5.85;;;5.35;;
52033;SDS011;38045;52.988;6.536;2024-02-14T02:40:16;5.22;;;4.78;;
52033;SDS011;38045;52.988;6.536;2024-02-14T02:42:42;5.45;;;5.03;;
52033;SDS011;38045;52.988;6.536;2024-02-14T02:45:10;4.47;;;3.90;;
52033;SDS011;38045;52.988;6.536;2024-02-14T02:47:36;1.73;;;1.63;;
52033;SDS011;38045;52.988;6.536;2024-02-14T02:50:02;4.28;;;3.97;;
52033;SDS011;38045;52.988;6.536;2024-02-14T02:52:29;3.10;;;2.85;;
52033;SDS011;38045;52.988;6.536;2024-02-14T02:54:56;4.38;;;3.40;;
52033;SDS011;38045;52.988;6.536;2024-02-14T02:57:21;3.90;;;3.58;;
52033;SDS011;38045;52.988;6.536;2024-02-14T02:59:47;4.63;;;4.22;;
52033;SDS011;38045;52.988;6.536;2024-02-14T03:02:14;5.03;;;4.63;;
52033;SDS011;38045;52.988;6.536;2024-02-14T03:04:40;5.57;;;5.18;;
52033;SDS011;38045;52.988;6.536;2024-02-14T03:07:07;2.50;;;2.30;;
52033;SDS011;38045;52.988;6.536;2024-02-14T03:12:02;4.75;;;4.35;;
52033;SDS011;38045;52.988;6.536;2024-02-14T03:14:31;2.55;;;2.35;;
52033;SDS011;38045;52.988;6.536;2024-02-14T03:17:01;3.55;;;3.35;;
52033;SDS011;38045;52.988;6.536;2024-02-14T03:19:27;4.25;;;3.75;;
52033;SDS011;38045;52.988;6.536;2024-02-14T03:21:54;2.97;;;2.78;;
52033;SDS011;38045;52.988;6.536;2024-02-14T03:24:20;4.30;;;3.97;;
52033;SDS011;38045;52.988;6.536;2024-02-14T03:26:45;3.47;;;3.17;;
52033;SDS011;38045;52.988;6.536;2024-02-14T03:29:11;3.28;;;2.97;;
52033;SDS011;38045;52.988;6.536;2024-02-14T03:31:37;4.30;;;3.25;;
52033;SDS011;38045;52.988;6.536;2024-02-14T03:34:03;2.53;;;2.33;;
52033;SDS011;38045;52.988;6.536;2024-02-14T03:36:30;4.00;;;3.70;;
52033;SDS011;38045;52.988;6.536;2024-02-14T03:38:56;2.80;;;2.58;;
52033;SDS011;38045;52.988;6.536;2024-02-14T03:41:22;3.35;;;2.78;;
52033;SDS011;38045;52.988;6.536;2024-02-14T03:43:48;3.83;;;3.53;;
52033;SDS011;38045;52.988;6.536;2024-02-14T03:46:17;2.97;;;2.78;;
52033;SDS011;38045;52.988;6.536;2024-02-14T03:48:46;3.55;;;3.30;;
52033;SDS011;38045;52.988;6.536;2024-02-14T03:51:12;3.97;;;3.55;;
52033;SDS011;38045;52.988;6.536;2024-02-14T03:53:38;4.40;;;4.00;;
52033;SDS011;38045;52.988;6.536;2024-02-14T03:56:04;3.40;;;3.10;;
52033;SDS011;38045;52.988;6.536;2024-02-14T03:58:32;4.15;;;3.83;;
52033;SDS011;38045;52.988;6.536;2024-02-14T04:01:02;5.13;;;4.72;;
52033;SDS011;38045;52.988;6.536;2024-02-14T04:03:28;2.40;;;2.20;;
52033;SDS011;38045;52.988;6.536;2024-02-14T04:05:54;4.22;;;3.28;;
52033;SDS011;38045;52.988;6.536;2024-02-14T04:08:20;3.90;;;3.60;;
52033;SDS011;38045;52.988;6.536;2024-02-14T04:10:47;4.60;;;4.20;;
52033;SDS011;38045;52.988;6.536;2024-02-14T04:13:15;3.13;;;2.87;;
52033;SDS011;38045;52.988;6.536;2024-02-14T04:15:41;5.22;;;4.82;;
52033;SDS011;38045;52.988;6.536;2024-02-14T04:18:09;4.93;;;4.43;;
52033;SDS011;38045;52.988;6.536;2024-02-14T04:20:35;2.45;;;2.25;;
52033;SDS011;38045;52.988;6.536;2024-02-14T04:23:00;3.53;;;3.22;;
52033;SDS011;38045;52.988;6.536;2024-02-14T04:25:26;3.25;;;2.95;;
52033;SDS011;38045;52.988;6.536;2024-02-14T04:27:52;3.50;;;3.17;;
52033;SDS011;38045;52.988;6.536;2024-02-14T04:30:17;3.85;;;3.53;;
52033;SDS011;38045;52.988;6.536;2024-02-14T04:32:43;2.60;;;2.40;;
52033;SDS011;38045;52.988;6.536;2024-02-14T04:35:09;5.60;;;5.10;;
52033;SDS011;38045;52.988;6.536;2024-02-14T04:37:34;3.40;;;3.05;;
52033;SDS011;38045;52.988;6.536;2024-02-14T04:40:01;5.05;;;4.65;;
52033;SDS011;38045;52.988;6.536;2024-02-14T04:42:29;5.43;;;5.03;;
52033;SDS011;38045;52.988;6.536;2024-02-14T04:44:55;3.42;;;3.20;;
52033;SDS011;38045;52.988;6.536;2024-02-14T04:47:20;3.20;;;2.88;;
52033;SDS011;38045;52.988;6.536;2024-02-14T04:49:46;3.92;;;2.90;;
52033;SDS011;38045;52.988;6.536;2024-02-14T04:52:12;3.17;;;2.97;;
52033;SDS011;38045;52.988;6.536;2024-02-14T04:54:37;5.47;;;5.07;;
52033;SDS011;38045;52.988;6.536;2024-02-14T04:57:03;3.58;;;3.10;;
52033;SDS011;38045;52.988;6.536;2024-02-14T04:59:29;2.80;;;2.47;;
52033;SDS011;38045;52.988;6.536;2024-02-14T05:01:55;4.47;;;3.60;;
52033;SDS011;38045;52.988;6.536;2024-02-14T05:04:21;3.55;;;3.25;;
52033;SDS011;38045;52.988;6.536;2024-02-14T05:06:47;2.22;;;1.80;;
52033;SDS011;38045;52.988;6.536;2024-02-14T05:09:13;3.15;;;2.95;;
52033;SDS011;38045;52.988;6.536;2024-02-14T05:11:40;3.17;;;2.88;;
52033;SDS011;38045;52.988;6.536;2024-02-14T05:14:05;2.97;;;2.67;;
52033;SDS011;38045;52.988;6.536;2024-02-14T05:16:31;3.50;;;3.20;;
52033;SDS011;38045;52.988;6.536;2024-02-14T05:18:56;3.13;;;2.72;;
52033;SDS011;38045;52.988;6.536;2024-02-14T05:21:22;3.47;;;3.17;;
52033;SDS011;38045;52.988;6.536;2024-02-14T05:23:47;5.00;;;4.63;;
52033;SDS011;38045;52.988;6.536;2024-02-14T05:26:13;4.25;;;3.85;;
52033;SDS011;38045;52.988;6.536;2024-02-14T05:28:39;3.40;;;3.10;;
52033;SDS011;38045;52.988;6.536;2024-02-14T05:31:05;3.00;;;2.80;;
52033;SDS011;38045;52.988;6.536;2024-02-14T05:33:30;3.97;;;3.65;;
52033;SDS011;38045;52.988;6.536;2024-02-14T05:35:56;2.97;;;2.72;;
52033;SDS011;38045;52.988;6.536;2024-02-14T05:38:21;4.10;;;3.80;;
52033;SDS011;38045;52.988;6.536;2024-02-14T05:40:48;3.03;;;2.83;;
52033;SDS011;38045;52.988;6.536;2024-02-14T05:43:14;2.42;;;2.22;;
52033;SDS011;38045;52.988;6.536;2024-02-14T05:45:40;4.00;;;3.63;;
52033;SDS011;38045;52.988;6.536;2024-02-14T05:48:07;3.15;;;2.95;;
52033;SDS011;38045;52.988;6.536;2024-02-14T05:50:33;2.80;;;2.58;;
52033;SDS011;38045;52.988;6.536;2024-02-14T05:52:59;2.22;;;2.10;;
52033;SDS011;38045;52.988;6.536;2024-02-14T05:55:25;4.55;;;4.20;;
52033;SDS011;38045;52.988;6.536;2024-02-14T05:57:51;3.40;;;3.17;;
52033;SDS011;38045;52.988;6.536;2024-02-14T06:00:20;4.05;;;3.75;;
52033;SDS011;38045;52.988;6.536;2024-02-14T06:02:46;3.03;;;2.83;;
52033;SDS011;38045;52.988;6.536;2024-02-14T06:05:14;6.57;;;3.55;;
52033;SDS011;38045;52.988;6.536;2024-02-14T06:07:40;6.88;;;6.20;;
52033;SDS011;38045;52.988;6.536;2024-02-14T06:10:07;5.10;;;4.13;;
52033;SDS011;38045;52.988;6.536;2024-02-14T06:12:33;15.88;;;7.78;;
52033;SDS011;38045;52.988;6.536;2024-02-14T06:15:00;11.23;;;8.00;;
52033;SDS011;38045;52.988;6.536;2024-02-14T06:17:26;7.03;;;5.75;;
52033;SDS011;38045;52.988;6.536;2024-02-14T06:19:52;6.82;;;4.85;;
52033;SDS011;38045;52.988;6.536;2024-02-14T06:22:18;8.10;;;6.53;;
52033;SDS011;38045;52.988;6.536;2024-02-14T06:24:44;13.07;;;7.00;;
52033;SDS011;38045;52.988;6.536;2024-02-14T06:27:09;12.93;;;8.27;;
52033;SDS011;38045;52.988;6.536;2024-02-14T06:29:36;9.30;;;6.07;;
52033;SDS011;38045;52.988;6.536;2024-02-14T06:32:01;12.05;;;8.13;;
52033;SDS011;38045;52.988;6.536;2024-02-14T06:34:27;16.48;;;8.15;;
52033;SDS011;38045;52.988;6.536;2024-02-14T06:36:53;17.15;;;8.95;;
52033;SDS011;38045;52.988;6.536;2024-02-14T06:39:19;7.00;;;5.05;;
52033;SDS011;38045;52.988;6.536;2024-02-14T06:41:45;13.38;;;7.03;;
52033;SDS011;38045;52.988;6.536;2024-02-14T06:44:12;10.48;;;5.55;;
52033;SDS011;38045;52.988;6.536;2024-02-14T06:46:38;16.60;;;9.40;;
52033;SDS011;38045;52.988;6.536;2024-02-14T06:49:04;16.27;;;8.85;;
52033;SDS011;38045;52.988;6.536;2024-02-14T06:51:30;28.30;;;9.75;;
52033;SDS011;38045;52.988;6.536;2024-02-14T06:53:56;17.88;;;8.68;;
52033;SDS011;38045;52.988;6.536;2024-02-14T06:56:22;27.08;;;14.07;;
52033;SDS011;38045;52.988;6.536;2024-02-14T06:58:47;26.13;;;12.27;;
52033;SDS011;38045;52.988;6.536;2024-02-14T07:01:18;24.83;;;9.13;;
52033;SDS011;38045;52.988;6.536;2024-02-14T07:03:47;29.80;;;8.93;;
52033;SDS011;38045;52.988;6.536;2024-02-14T07:06:13;23.55;;;8.52;;
52033;SDS011;38045;52.988;6.536;2024-02-14T07:08:41;27.20;;;8.45;;
52033;SDS011;38045;52.988;6.536;2024-02-14T07:11:07;31.17;;;11.57;;
52033;SDS011;38045;52.988;6.536;2024-02-14T07:13:32;28.30;;;11.77;;
52033;SDS011;38045;52.988;6.536;2024-02-14T07:15:58;24.67;;;8.32;;
52033;SDS011;38045;52.988;6.536;2024-02-14T07:18:24;25.92;;;9.45;;
52033;SDS011;38045;52.988;6.536;2024-02-14T07:20:49;18.27;;;7.85;;
52033;SDS011;38045;52.988;6.536;2024-02-14T07:23:15;37.03;;;11.40;;
52033;SDS011;38045;52.988;6.536;2024-02-14T07:25:42;30.05;;;9.45;;
52033;SDS011;38045;52.988;6.536;2024-02-14T07:28:08;54.97;;;15.23;;
52033;SDS011;38045;52.988;6.536;2024-02-14T07:30:33;19.88;;;8.65;;
52033;SDS011;38045;52.988;6.536;2024-02-14T07:33:00;30.35;;;10.18;;
52033;SDS011;38045;52.988;6.536;2024-02-14T07:35:26;25.17;;;9.00;;
52033;SDS011;38045;52.988;6.536;2024-02-14T07:37:51;11.50;;;5.85;;
52033;SDS011;38045;52.988;6.536;2024-02-14T07:40:17;16.88;;;8.38;;
52033;SDS011;38045;52.988;6.536;2024-02-14T07:42:42;10.48;;;6.80;;
52033;SDS011;38045;52.988;6.536;2024-02-14T07:45:08;31.13;;;9.52;;
52033;SDS011;38045;52.988;6.536;2024-02-14T07:47:34;13.27;;;8.18;;
52033;SDS011;38045;52.988;6.536;2024-02-14T07:50:00;25.70;;;8.98;;
52033;SDS011;38045;52.988;6.536;2024-02-14T07:52:25;23.50;;;8.98;;
52033;SDS011;38045;52.988;6.536;2024-02-14T07:54:51;15.68;;;7.85;;
52033;SDS011;38045;52.988;6.536;2024-02-14T07:57:18;14.60;;;8.60;;
52033;SDS011;38045;52.988;6.536;2024-02-14T07:59:44;24.20;;;10.68;;
52033;SDS011;38045;52.988;6.536;2024-02-14T08:02:10;23.38;;;8.57;;
52033;SDS011;38045;52.988;6.536;2024-02-14T08:04:35;17.10;;;9.05;;
52033;SDS011;38045;52.988;6.536;2024-02-14T08:07:01;17.38;;;5.43;;
52033;SDS011;38045;52.988;6.536;2024-02-14T08:09:27;38.95;;;9.95;;
52033;SDS011;38045;52.988;6.536;2024-02-14T08:11:54;22.27;;;7.75;;
52033;SDS011;38045;52.988;6.536;2024-02-14T08:14:19;44.88;;;11.73;;
52033;SDS011;38045;52.988;6.536;2024-02-14T08:16:45;24.52;;;10.25;;
52033;SDS011;38045;52.988;6.536;2024-02-14T08:19:11;21.10;;;8.68;;
52033;SDS011;38045;52.988;6.536;2024-02-14T08:21:37;17.52;;;8.10;;
52033;SDS011;38045;52.988;6.536;2024-02-14T08:24:02;22.35;;;6.60;;
52033;SDS011;38045;52.988;6.536;2024-02-14T08:26:28;17.05;;;3.92;;
52033;SDS011;38045;52.988;6.536;2024-02-14T08:28:54;18.70;;;7.38;;
52033;SDS011;38045;52.988;6.536;2024-02-14T08:31:19;15.45;;;6.55;;
52033;SDS011;38045;52.988;6.536;2024-02-14T08:33:45;13.27;;;6.57;;
52033;SDS011;38045;52.988;6.536;2024-02-14T08:36:11;21.60;;;6.75;;
52033;SDS011;38045;52.988;6.536;2024-02-14T08:38:36;9.60;;;5.68;;
52033;SDS011;38045;52.988;6.536;2024-02-14T08:41:02;21.13;;;5.40;;
52033;SDS011;38045;52.988;6.536;2024-02-14T08:43:28;9.30;;;4.93;;
52033;SDS011;38045;52.988;6.536;2024-02-14T08:45:54;8.35;;;4.63;;
52033;SDS011;38045;52.988;6.536;2024-02-14T08:48:20;8.45;;;3.58;;
52033;SDS011;38045;52.988;6.536;2024-02-14T08:50:46;4.22;;;3.10;;
52033;SDS011;38045;52.988;6.536;2024-02-14T08:53:12;8.52;;;4.55;;
52033;SDS011;38045;52.988;6.536;2024-02-14T08:55:39;14.00;;;6.57;;
52033;SDS011;38045;52.988;6.536;2024-02-14T08:58:05;16.52;;;7.88;;
52033;SDS011;38045;52.988;6.536;2024-02-14T09:00:31;13.65;;;5.07;;
52033;SDS011;38045;52.988;6.536;2024-02-14T09:02:56;16.88;;;5.40;;
52033;SDS011;38045;52.988;6.536;2024-02-14T09:05:25;32.50;;;7.50;;
52033;SDS011;38045;52.988;6.536;2024-02-14T09:07:50;20.02;;;7.35;;
52033;SDS011;38045;52.988;6.536;2024-02-14T09:10:16;12.07;;;6.57;;
52033;SDS011;38045;52.988;6.536;2024-02-14T09:12:42;18.65;;;8.57;;
52033;SDS011;38045;52.988;6.536;2024-02-14T09:15:08;18.00;;;4.90;;
52033;SDS011;38045;52.988;6.536;2024-02-14T09:17:34;11.35;;;5.95;;
52033;SDS011;38045;52.988;6.536;2024-02-14T09:19:59;17.95;;;9.45;;
52033;SDS011;38045;52.988;6.536;2024-02-14T09:22:26;20.85;;;5.85;;
52033;SDS011;38045;52.988;6.536;2024-02-14T09:24:51;20.42;;;6.85;;
52033;SDS011;38045;52.988;6.536;2024-02-14T09:27:17;12.95;;;4.90;;
52033;SDS011;38045;52.988;6.536;2024-02-14T09:29:43;17.52;;;8.77;;
52033;SDS011;38045;52.988;6.536;2024-02-14T09:32:08;17.33;;;6.85;;
52033;SDS011;38045;52.988;6.536;2024-02-14T09:34:34;20.60;;;8.18;;
52033;SDS011;38045;52.988;6.536;2024-02-14T09:37:00;21.27;;;8.20;;
52033;SDS011;38045;52.988;6.536;2024-02-14T09:39:25;17.95;;;8.00;;
52033;SDS011;38045;52.988;6.536;2024-02-14T09:41:52;15.20;;;5.95;;
52033;SDS011;38045;52.988;6.536;2024-02-14T09:44:20;15.98;;;7.55;;
52033;SDS011;38045;52.988;6.536;2024-02-14T09:46:47;13.23;;;6.63;;
52033;SDS011;38045;52.988;6.536;2024-02-14T09:49:13;10.68;;;6.75;;
52033;SDS011;38045;52.988;6.536;2024-02-14T09:51:40;13.98;;;6.55;;
52033;SDS011;38045;52.988;6.536;2024-02-14T09:54:07;21.13;;;9.25;;
52033;SDS011;38045;52.988;6.536;2024-02-14T09:56:33;10.00;;;7.53;;
52033;SDS011;38045;52.988;6.536;2024-02-14T09:58:59;10.57;;;7.43;;
52033;SDS011;38045;52.988;6.536;2024-02-14T10:01:27;11.48;;;5.63;;
52033;SDS011;38045;52.988;6.536;2024-02-14T10:03:54;12.48;;;8.27;;
52033;SDS011;38045;52.988;6.536;2024-02-14T10:06:20;13.95;;;9.88;;
52033;SDS011;38045;52.988;6.536;2024-02-14T10:08:49;5.82;;;5.30;;
52033;SDS011;38045;52.988;6.536;2024-02-14T10:11:18;12.63;;;11.32;;
52033;SDS011;38045;52.988;6.536;2024-02-14T10:13:46;13.30;;;8.60;;
52033;SDS011;38045;52.988;6.536;2024-02-14T10:16:13;8.98;;;7.05;;
52033;SDS011;38045;52.988;6.536;2024-02-14T10:18:43;19.20;;;11.40;;
52033;SDS011;38045;52.988;6.536;2024-02-14T10:21:14;13.98;;;9.02;;
52033;SDS011;38045;52.988;6.536;2024-02-14T10:23:41;10.95;;;8.20;;
52033;SDS011;38045;52.988;6.536;2024-02-14T10:26:08;8.23;;;6.88;;
52033;SDS011;38045;52.988;6.536;2024-02-14T10:28:34;6.88;;;6.32;;
52033;SDS011;38045;52.988;6.536;2024-02-14T10:33:50;9.18;;;8.30;;
52033;SDS011;38045;52.988;6.536;2024-02-14T10:36:17;8.25;;;6.13;;
52033;SDS011;38045;52.988;6.536;2024-02-14T10:38:45;7.53;;;5.47;;
52033;SDS011;38045;52.988;6.536;2024-02-14T10:41:14;6.18;;;5.50;;
52033;SDS011;38045;52.988;6.536;2024-02-14T10:43:41;6.30;;;5.65;;
52033;SDS011;38045;52.988;6.536;2024-02-14T10:46:20;9.93;;;7.75;;
52033;SDS011;38045;52.988;6.536;2024-02-14T10:48:57;18.48;;;11.02;;
52033;SDS011;38045;52.988;6.536;2024-02-14T10:51:28;13.45;;;10.07;;
52033;SDS011;38045;52.988;6.536;2024-02-14T10:53:56;11.10;;;10.02;;
52033;SDS011;38045;52.988;6.536;2024-02-14T10:56:24;6.50;;;5.88;;
52033;SDS011;38045;52.988;6.536;2024-02-14T10:58:55;10.75;;;8.07;;
52033;SDS011;38045;52.988;6.536;2024-02-14T11:01:28;10.70;;;9.75;;
52033;SDS011;38045;52.988;6.536;2024-02-14T11:03:58;13.65;;;10.85;;
52033;SDS011;38045;52.988;6.536;2024-02-14T11:06:25;10.52;;;9.02;;
52033;SDS011;38045;52.988;6.536;2024-02-14T11:08:58;14.20;;;12.40;;
52033;SDS011;38045;52.988;6.536;2024-02-14T11:11:35;11.85;;;10.60;;
52033;SDS011;38045;52.988;6.536;2024-02-14T11:14:02;9.50;;;7.78;;
52033;SDS011;38045;52.988;6.536;2024-02-14T11:16:30;13.63;;;10.70;;
52033;SDS011;38045;52.988;6.536;2024-02-14T11:19:10;11.95;;;10.52;;
52033;SDS011;38045;52.988;6.536;2024-02-14T11:21:40;15.50;;;10.73;;
52033;SDS011;38045;52.988;6.536;2024-02-14T11:24:10;13.60;;;10.25;;
52033;SDS011;38045;52.988;6.536;2024-02-14T11:26:38;14.55;;;12.68;;
52033;SDS011;38045;52.988;6.536;2024-02-14T11:29:17;14.50;;;11.38;;
52033;SDS011;38045;52.988;6.536;2024-02-14T11:31:46;9.85;;;7.43;;
52033;SDS011;38045;52.988;6.536;2024-02-14T11:34:15;16.45;;;11.05;;
52033;SDS011;38045;52.988;6.536;2024-02-14T11:36:41;16.52;;;12.63;;
52033;SDS011;38045;52.988;6.536;2024-02-14T11:39:07;9.00;;;7.05;;
52033;SDS011;38045;52.988;6.536;2024-02-14T11:41:33;13.90;;;11.45;;
52033;SDS011;38045;52.988;6.536;2024-02-14T11:44:06;16.25;;;12.18;;
52033;SDS011;38045;52.988;6.536;2024-02-14T11:46:33;16.40;;;12.57;;
52033;SDS011;38045;52.988;6.536;2024-02-14T11:49:00;9.77;;;7.72;;
52033;SDS011;38045;52.988;6.536;2024-02-14T11:51:30;19.13;;;11.77;;
52033;SDS011;38045;52.988;6.536;2024-02-14T11:53:57;18.15;;;13.82;;
52033;SDS011;38045;52.988;6.536;2024-02-14T11:56:31;16.90;;;9.77;;
52033;SDS011;38045;52.988;6.536;2024-02-14T11:59:01;13.45;;;8.75;;
52033;SDS011;38045;52.988;6.536;2024-02-14T12:01:31;14.63;;;12.60;;
52033;SDS011;38045;52.988;6.536;2024-02-14T12:03:58;20.10;;;15.18;;
52033;SDS011;38045;52.988;6.536;2024-02-14T12:06:28;12.90;;;10.70;;
52033;SDS011;38045;52.988;6.536;2024-02-14T12:08:57;15.68;;;13.68;;
52033;SDS011;38045;52.988;6.536;2024-02-14T12:11:26;12.90;;;10.57;;
52033;SDS011;38045;52.988;6.536;2024-02-14T12:13:52;12.68;;;10.55;;
52033;SDS011;38045;52.988;6.536;2024-02-14T12:16:21;11.80;;;10.30;;
52033;SDS011;38045;52.988;6.536;2024-02-14T12:18:47;11.70;;;9.00;;
52033;SDS011;38045;52.988;6.536;2024-02-14T12:21:13;18.42;;;16.58;;
52033;SDS011;38045;52.988;6.536;2024-02-14T12:23:39;14.15;;;12.63;;
52033;SDS011;38045;52.988;6.536;2024-02-14T12:26:05;11.52;;;10.32;;
52033;SDS011;38045;52.988;6.536;2024-02-14T12:28:31;12.20;;;9.95;;
52033;SDS011;38045;52.988;6.536;2024-02-14T12:30:57;9.15;;;7.60;;
52033;SDS011;38045;52.988;6.536;2024-02-14T12:33:26;18.35;;;10.88;;
52033;SDS011;38045;52.988;6.536;2024-02-14T12:38:19;9.60;;;8.18;;
52033;SDS011;38045;52.988;6.536;2024-02-14T12:40:45;11.43;;;10.35;;
52033;SDS011;38045;52.988;6.536;2024-02-14T12:43:11;8.90;;;7.45;;
52033;SDS011;38045;52.988;6.536;2024-02-14T12:45:38;9.10;;;8.23;;
52033;SDS011;38045;52.988;6.536;2024-02-14T12:48:04;14.43;;;12.45;;
52033;SDS011;38045;52.988;6.536;2024-02-14T12:50:31;9.70;;;8.68;;
52033;SDS011;38045;52.988;6.536;2024-02-14T12:52:57;9.52;;;8.02;;
52033;SDS011;38045;52.988;6.536;2024-02-14T12:55:23;10.23;;;9.23;;
52033;SDS011;38045;52.988;6.536;2024-02-14T12:57:51;9.48;;;7.00;;
52033;SDS011;38045;52.988;6.536;2024-02-14T13:00:17;8.98;;;7.97;;
52033;SDS011;38045;52.988;6.536;2024-02-14T13:02:43;11.23;;;10.23;;
52033;SDS011;38045;52.988;6.536;2024-02-14T13:05:09;11.05;;;9.95;;
52033;SDS011;38045;52.988;6.536;2024-02-14T13:07:34;12.02;;;10.82;;
52033;SDS011;38045;52.988;6.536;2024-02-14T13:10:00;11.43;;;10.35;;
52033;SDS011;38045;52.988;6.536;2024-02-14T13:12:26;9.98;;;8.98;;
52033;SDS011;38045;52.988;6.536;2024-02-14T13:14:52;11.13;;;9.35;;
52033;SDS011;38045;52.988;6.536;2024-02-14T13:17:17;11.32;;;10.18;;
52033;SDS011;38045;52.988;6.536;2024-02-14T13:19:43;12.73;;;9.80;;
52033;SDS011;38045;52.988;6.536;2024-02-14T13:22:09;17.00;;;12.75;;
52033;SDS011;38045;52.988;6.536;2024-02-14T13:24:34;12.63;;;11.32;;
52033;SDS011;38045;52.988;6.536;2024-02-14T13:27:00;16.65;;;13.50;;
52033;SDS011;38045;52.988;6.536;2024-02-14T13:29:26;22.48;;;20.17;;
52033;SDS011;38045;52.988;6.536;2024-02-14T13:31:52;13.23;;;10.02;;
52033;SDS011;38045;52.988;6.536;2024-02-14T13:34:17;15.60;;;13.10;;
52033;SDS011;38045;52.988;6.536;2024-02-14T13:36:46;17.83;;;14.95;;
52033;SDS011;38045;52.988;6.536;2024-02-14T13:39:12;17.88;;;14.32;;
52033;SDS011;38045;52.988;6.536;2024-02-14T13:41:38;18.05;;;14.07;;
52033;SDS011;38045;52.988;6.536;2024-02-14T13:44:08;14.30;;;11.63;;
52033;SDS011;38045;52.988;6.536;2024-02-14T13:46:33;23.75;;;15.73;;
52033;SDS011;38045;52.988;6.536;2024-02-14T13:48:59;13.63;;;11.00;;
52033;SDS011;38045;52.988;6.536;2024-02-14T13:51:25;22.80;;;13.55;;
52033;SDS011;38045;52.988;6.536;2024-02-14T13:53:52;14.10;;;12.57;;
52033;SDS011;38045;52.988;6.536;2024-02-14T13:56:18;17.30;;;13.52;;
52033;SDS011;38045;52.988;6.536;2024-02-14T13:58:47;15.23;;;12.15;;
52033;SDS011;38045;52.988;6.536;2024-02-14T14:01:16;10.55;;;8.93;;
52033;SDS011;38045;52.988;6.536;2024-02-14T14:03:42;15.40;;;13.80;;
52033;SDS011;38045;52.988;6.536;2024-02-14T14:06:08;11.13;;;9.88;;
52033;SDS011;38045;52.988;6.536;2024-02-14T14:08:34;15.20;;;9.95;;
52033;SDS011;38045;52.988;6.536;2024-02-14T14:11:02;10.60;;;8.65;;
52033;SDS011;38045;52.988;6.536;2024-02-14T14:13:28;7.93;;;6.45;;
52033;SDS011;38045;52.988;6.536;2024-02-14T14:15:56;12.23;;;11.00;;
52033;SDS011;38045;52.988;6.536;2024-02-14T14:18:22;7.50;;;6.53;;
52033;SDS011;38045;52.988;6.536;2024-02-14T14:20:48;7.30;;;6.25;;
52033;SDS011;38045;52.988;6.536;2024-02-14T14:23:14;9.05;;;8.00;;
52033;SDS011;38045;52.988;6.536;2024-02-14T14:25:41;11.20;;;7.65;;
52033;SDS011;38045;52.988;6.536;2024-02-14T14:28:06;9.00;;;6.50;;
52033;SDS011;38045;52.988;6.536;2024-02-14T14:30:34;8.30;;;6.78;;
52033;SDS011;38045;52.988;6.536;2024-02-14T14:33:00;7.72;;;6.93;;
52033;SDS011;38045;52.988;6.536;2024-02-14T14:35:26;5.97;;;4.75;;
52033;SDS011;38045;52.988;6.536;2024-02-14T14:37:51;5.50;;;4.75;;
52033;SDS011;38045;52.988;6.536;2024-02-14T14:40:17;8.93;;;7.55;;
52033;SDS011;38045;52.988;6.536;2024-02-14T14:42:42;8.32;;;7.53;;